Terminal Aerodrome Forecast
Issued by NWS

Home | Current Version | Previous Version | Text Only | Print | Product List | Glossary On
Versions: 1 2 3 4 5 6 7 8 9 10 11 12 13
000
FTUS43 KEAX 172327
TAFMKC
TAF
KMKC 172327Z 1800/1824 VRB03KT P6SM BKN025
     FM180500 VRB03KT 6SM BR OVC017
      TEMPO 1807/1811 3SM BR OVC007
     FM181100 24004KT P6SM SCT006
      TEMPO 1811/1815 2SM BR
     FM181500 23009KT P6SM FEW025=

USA.gov is the U.S. government's official web portal to all federal, state and local government web resources and services.